sensor_id;sensor_type;location;lat;lon;timestamp;temperature;humidity
51853;DHT22;37894;53.172;6.598;2023-11-21T00:00:19;8.90;99.90
51853;DHT22;37894;53.172;6.598;2023-11-21T00:02:46;8.60;99.90
51853;DHT22;37894;53.172;6.598;2023-11-21T00:05:13;9.10;99.90
51853;DHT22;37894;53.172;6.598;2023-11-21T00:07:42;9.00;99.90
51853;DHT22;37894;53.172;6.598;2023-11-21T00:10:09;9.00;99.90
51853;DHT22;37894;53.172;6.598;2023-11-21T00:12:36;9.70;99.90
51853;DHT22;37894;53.172;6.598;2023-11-21T00:15:02;8.30;99.90
51853;DHT22;37894;53.172;6.598;2023-11-21T00:22:20;9.10;99.90
51853;DHT22;37894;53.172;6.598;2023-11-21T00:24:46;9.10;99.90
51853;DHT22;37894;53.172;6.598;2023-11-21T00:27:13;9.40;99.90
51853;DHT22;37894;53.172;6.598;2023-11-21T00:29:40;8.40;99.90
51853;DHT22;37894;53.172;6.598;2023-11-21T00:32:06;9.40;99.90
51853;DHT22;37894;53.172;6.598;2023-11-21T00:34:32;9.10;99.90
51853;DHT22;37894;53.172;6.598;2023-11-21T00:36:58;9.30;99.90
51853;DHT22;37894;53.172;6.598;2023-11-21T00:39:24;9.00;99.90
51853;DHT22;37894;53.172;6.598;2023-11-21T00:44:17;8.50;99.90
51853;DHT22;37894;53.172;6.598;2023-11-21T00:46:43;9.20;99.90
51853;DHT22;37894;53.172;6.598;2023-11-21T00:49:08;9.00;99.90
51853;DHT22;37894;53.172;6.598;2023-11-21T00:51:34;8.90;99.90
51853;DHT22;37894;53.172;6.598;2023-11-21T00:54:00;9.30;99.90
51853;DHT22;37894;53.172;6.598;2023-11-21T00:56:26;9.40;99.90
51853;DHT22;37894;53.172;6.598;2023-11-21T01:01:19;9.20;99.90
51853;DHT22;37894;53.172;6.598;2023-11-21T01:03:48;8.70;99.90
51853;DHT22;37894;53.172;6.598;2023-11-21T01:06:15;9.10;99.90
51853;DHT22;37894;53.172;6.598;2023-11-21T01:08:41;10.10;99.90
51853;DHT22;37894;53.172;6.598;2023-11-21T01:11:06;9.30;99.90
51853;DHT22;37894;53.172;6.598;2023-11-21T01:13:38;9.20;99.90
51853;DHT22;37894;53.172;6.598;2023-11-21T01:16:05;9.00;99.90
51853;DHT22;37894;53.172;6.598;2023-11-21T01:18:32;9.50;99.90
51853;DHT22;37894;53.172;6.598;2023-11-21T01:23:26;9.40;99.90
51853;DHT22;37894;53.172;6.598;2023-11-21T01:25:52;9.10;99.90
51853;DHT22;37894;53.172;6.598;2023-11-21T01:30:45;9.40;99.90
51853;DHT22;37894;53.172;6.598;2023-11-21T01:33:11;9.40;99.90
51853;DHT22;37894;53.172;6.598;2023-11-21T01:38:03;9.60;99.90
51853;DHT22;37894;53.172;6.598;2023-11-21T01:40:33;9.40;99.90
51853;DHT22;37894;53.172;6.598;2023-11-21T01:43:00;9.30;99.90
51853;DHT22;37894;53.172;6.598;2023-11-21T01:47:56;9.30;99.90
51853;DHT22;37894;53.172;6.598;2023-11-21T01:50:23;9.60;99.90
51853;DHT22;37894;53.172;6.598;2023-11-21T01:52:50;8.80;99.90
51853;DHT22;37894;53.172;6.598;2023-11-21T01:55:17;9.50;99.90
51853;DHT22;37894;53.172;6.598;2023-11-21T01:57:46;9.40;99.90
51853;DHT22;37894;53.172;6.598;2023-11-21T02:00:12;9.40;99.90
51853;DHT22;37894;53.172;6.598;2023-11-21T02:02:45;9.80;99.90
51853;DHT22;37894;53.172;6.598;2023-11-21T02:05:16;9.30;99.90
51853;DHT22;37894;53.172;6.598;2023-11-21T02:07:44;9.70;99.90
51853;DHT22;37894;53.172;6.598;2023-11-21T02:10:13;9.50;99.90
51853;DHT22;37894;53.172;6.598;2023-11-21T02:12:42;8.40;99.90
51853;DHT22;37894;53.172;6.598;2023-11-21T02:15:10;9.30;99.90
51853;DHT22;37894;53.172;6.598;2023-11-21T02:17:43;9.70;99.90
51853;DHT22;37894;53.172;6.598;2023-11-21T02:20:11;10.10;99.90
51853;DHT22;37894;53.172;6.598;2023-11-21T02:22:41;8.90;99.90
51853;DHT22;37894;53.172;6.598;2023-11-21T02:25:08;9.00;99.90
51853;DHT22;37894;53.172;6.598;2023-11-21T02:27:34;9.60;99.90
51853;DHT22;37894;53.172;6.598;2023-11-21T02:29:59;9.50;99.90
51853;DHT22;37894;53.172;6.598;2023-11-21T02:32:26;8.60;99.90
51853;DHT22;37894;53.172;6.598;2023-11-21T02:34:52;9.40;99.90
51853;DHT22;37894;53.172;6.598;2023-11-21T02:37:21;9.30;99.90
51853;DHT22;37894;53.172;6.598;2023-11-21T02:39:47;9.40;99.90
51853;DHT22;37894;53.172;6.598;2023-11-21T02:42:12;9.40;99.90
51853;DHT22;37894;53.172;6.598;2023-11-21T02:44:38;9.50;99.90
51853;DHT22;37894;53.172;6.598;2023-11-21T02:49:30;9.40;99.90
51853;DHT22;37894;53.172;6.598;2023-11-21T02:51:56;8.70;99.90
51853;DHT22;37894;53.172;6.598;2023-11-21T02:54:22;9.90;99.90
51853;DHT22;37894;53.172;6.598;2023-11-21T02:59:15;9.50;99.90
51853;DHT22;37894;53.172;6.598;2023-11-21T03:01:41;9.60;99.90
51853;DHT22;37894;53.172;6.598;2023-11-21T03:06:33;9.50;99.90
51853;DHT22;37894;53.172;6.598;2023-11-21T03:08:59;9.70;99.90
51853;DHT22;37894;53.172;6.598;2023-11-21T03:11:25;10.20;99.90
51853;DHT22;37894;53.172;6.598;2023-11-21T03:13:51;9.70;99.90
51853;DHT22;37894;53.172;6.598;2023-11-21T03:16:16;8.80;99.90
51853;DHT22;37894;53.172;6.598;2023-11-21T03:18:42;9.60;99.90
51853;DHT22;37894;53.172;6.598;2023-11-21T03:21:08;9.20;99.90
51853;DHT22;37894;53.172;6.598;2023-11-21T03:23:37;9.70;99.90
51853;DHT22;37894;53.172;6.598;2023-11-21T03:26:03;9.50;99.90
51853;DHT22;37894;53.172;6.598;2023-11-21T03:28:29;8.40;99.90
51853;DHT22;37894;53.172;6.598;2023-11-21T03:30:55;9.60;99.90
51853;DHT22;37894;53.172;6.598;2023-11-21T03:35:48;9.40;99.90
51853;DHT22;37894;53.172;6.598;2023-11-21T03:40:41;9.30;99.90
51853;DHT22;37894;53.172;6.598;2023-11-21T03:43:07;9.50;99.90
51853;DHT22;37894;53.172;6.598;2023-11-21T03:45:33;9.20;99.90
51853;DHT22;37894;53.172;6.598;2023-11-21T03:50:29;9.30;99.90
51853;DHT22;37894;53.172;6.598;2023-11-21T03:55:21;9.40;99.90
51853;DHT22;37894;53.172;6.598;2023-11-21T03:57:48;8.50;99.90
51853;DHT22;37894;53.172;6.598;2023-11-21T04:00:14;9.30;99.90
51853;DHT22;37894;53.172;6.598;2023-11-21T04:09:59;9.30;99.90
51853;DHT22;37894;53.172;6.598;2023-11-21T04:14:51;9.10;99.90
51853;DHT22;37894;53.172;6.598;2023-11-21T04:17:20;9.20;99.90
51853;DHT22;37894;53.172;6.598;2023-11-21T04:24:40;8.50;99.90
51853;DHT22;37894;53.172;6.598;2023-11-21T04:27:06;9.50;99.90
51853;DHT22;37894;53.172;6.598;2023-11-21T04:29:32;9.20;99.90
51853;DHT22;37894;53.172;6.598;2023-11-21T04:31:57;9.20;99.90
51853;DHT22;37894;53.172;6.598;2023-11-21T04:34:23;9.40;99.90
51853;DHT22;37894;53.172;6.598;2023-11-21T04:36:49;9.20;99.90
51853;DHT22;37894;53.172;6.598;2023-11-21T04:39:15;8.80;99.90
51853;DHT22;37894;53.172;6.598;2023-11-21T04:41:41;9.20;99.90
51853;DHT22;37894;53.172;6.598;2023-11-21T04:44:06;8.80;99.90
51853;DHT22;37894;53.172;6.598;2023-11-21T04:46:32;9.60;99.90
51853;DHT22;37894;53.172;6.598;2023-11-21T04:48:58;9.40;99.90
51853;DHT22;37894;53.172;6.598;2023-11-21T04:51:24;9.60;99.90
51853;DHT22;37894;53.172;6.598;2023-11-21T04:53:50;9.30;99.90
51853;DHT22;37894;53.172;6.598;2023-11-21T04:58:42;9.90;99.90
51853;DHT22;37894;53.172;6.598;2023-11-21T05:01:08;9.40;99.90
51853;DHT22;37894;53.172;6.598;2023-11-21T05:06:00;9.00;99.90
51853;DHT22;37894;53.172;6.598;2023-11-21T05:08:26;10.20;99.90
51853;DHT22;37894;53.172;6.598;2023-11-21T05:10:52;9.20;99.90
51853;DHT22;37894;53.172;6.598;2023-11-21T05:13:19;10.10;99.90
51853;DHT22;37894;53.172;6.598;2023-11-21T05:15:45;9.50;99.90
51853;DHT22;37894;53.172;6.598;2023-11-21T05:18:11;9.50;99.90
51853;DHT22;37894;53.172;6.598;2023-11-21T05:25:33;9.30;99.90
51853;DHT22;37894;53.172;6.598;2023-11-21T05:27:59;9.90;99.90
51853;DHT22;37894;53.172;6.598;2023-11-21T05:30:27;9.50;99.90
51853;DHT22;37894;53.172;6.598;2023-11-21T05:35:19;9.60;99.90
51853;DHT22;37894;53.172;6.598;2023-11-21T05:37:46;9.90;99.90
51853;DHT22;37894;53.172;6.598;2023-11-21T05:40:12;9.40;99.90
51853;DHT22;37894;53.172;6.598;2023-11-21T05:42:39;9.30;99.90
51853;DHT22;37894;53.172;6.598;2023-11-21T05:47:37;9.20;99.90
51853;DHT22;37894;53.172;6.598;2023-11-21T05:50:04;9.30;99.90
51853;DHT22;37894;53.172;6.598;2023-11-21T05:52:31;9.20;99.90
51853;DHT22;37894;53.172;6.598;2023-11-21T05:54:58;9.50;99.90
51853;DHT22;37894;53.172;6.598;2023-11-21T05:57:23;8.80;99.90
51853;DHT22;37894;53.172;6.598;2023-11-21T05:59:49;9.40;99.90
51853;DHT22;37894;53.172;6.598;2023-11-21T06:02:15;8.90;99.90
51853;DHT22;37894;53.172;6.598;2023-11-21T06:04:40;9.90;99.90
51853;DHT22;37894;53.172;6.598;2023-11-21T06:09:32;9.50;99.90
51853;DHT22;37894;53.172;6.598;2023-11-21T06:11:58;9.00;99.90
51853;DHT22;37894;53.172;6.598;2023-11-21T06:14:24;10.10;99.90
51853;DHT22;37894;53.172;6.598;2023-11-21T06:16:49;8.70;99.90
51853;DHT22;37894;53.172;6.598;2023-11-21T06:19:17;9.30;99.90
51853;DHT22;37894;53.172;6.598;2023-11-21T06:21:46;9.30;99.90
51853;DHT22;37894;53.172;6.598;2023-11-21T06:26:38;9.60;99.90
51853;DHT22;37894;53.172;6.598;2023-11-21T06:29:04;9.10;99.90
51853;DHT22;37894;53.172;6.598;2023-11-21T06:33:58;9.40;99.90
51853;DHT22;37894;53.172;6.598;2023-11-21T06:36:25;9.60;99.90
51853;DHT22;37894;53.172;6.598;2023-11-21T06:38:52;9.50;99.90
51853;DHT22;37894;53.172;6.598;2023-11-21T06:41:18;9.40;99.90
51853;DHT22;37894;53.172;6.598;2023-11-21T06:43:43;9.60;99.90
51853;DHT22;37894;53.172;6.598;2023-11-21T06:48:42;9.30;99.90
51853;DHT22;37894;53.172;6.598;2023-11-21T06:51:07;9.50;99.90
51853;DHT22;37894;53.172;6.598;2023-11-21T06:58:26;8.80;99.90
51853;DHT22;37894;53.172;6.598;2023-11-21T07:03:18;9.50;99.90
51853;DHT22;37894;53.172;6.598;2023-11-21T07:05:45;9.20;99.90
51853;DHT22;37894;53.172;6.598;2023-11-21T07:08:11;8.90;99.90
51853;DHT22;37894;53.172;6.598;2023-11-21T07:10:38;9.20;99.90
51853;DHT22;37894;53.172;6.598;2023-11-21T07:15:29;9.40;99.90
51853;DHT22;37894;53.172;6.598;2023-11-21T07:20:21;9.40;99.90
51853;DHT22;37894;53.172;6.598;2023-11-21T07:22:47;9.40;99.90
51853;DHT22;37894;53.172;6.598;2023-11-21T07:27:39;9.00;99.90
51853;DHT22;37894;53.172;6.598;2023-11-21T07:32:33;9.00;99.90
51853;DHT22;37894;53.172;6.598;2023-11-21T07:34:59;9.10;99.90
51853;DHT22;37894;53.172;6.598;2023-11-21T07:37:26;8.70;99.90
51853;DHT22;37894;53.172;6.598;2023-11-21T07:39:54;9.00;99.90
51853;DHT22;37894;53.172;6.598;2023-11-21T07:42:23;8.70;99.90
51853;DHT22;37894;53.172;6.598;2023-11-21T07:47:17;9.20;99.90
51853;DHT22;37894;53.172;6.598;2023-11-21T07:52:10;9.20;99.90
51853;DHT22;37894;53.172;6.598;2023-11-21T07:54:36;8.30;99.90
51853;DHT22;37894;53.172;6.598;2023-11-21T07:57:02;9.10;99.90
51853;DHT22;37894;53.172;6.598;2023-11-21T08:01:56;9.50;99.90
51853;DHT22;37894;53.172;6.598;2023-11-21T08:04:21;9.20;99.90
51853;DHT22;37894;53.172;6.598;2023-11-21T08:06:47;9.00;99.90
51853;DHT22;37894;53.172;6.598;2023-11-21T08:09:13;9.10;99.90
51853;DHT22;37894;53.172;6.598;2023-11-21T08:14:05;8.70;99.90
51853;DHT22;37894;53.172;6.598;2023-11-21T08:16:31;9.00;99.90
51853;DHT22;37894;53.172;6.598;2023-11-21T08:18:56;9.00;99.90
51853;DHT22;37894;53.172;6.598;2023-11-21T08:23:50;9.00;99.90
51853;DHT22;37894;53.172;6.598;2023-11-21T08:26:20;8.50;99.90
51853;DHT22;37894;53.172;6.598;2023-11-21T08:31:13;9.80;99.90
51853;DHT22;37894;53.172;6.598;2023-11-21T08:33:38;8.70;99.90
51853;DHT22;37894;53.172;6.598;2023-11-21T08:36:09;8.80;99.90
51853;DHT22;37894;53.172;6.598;2023-11-21T08:38:36;8.80;99.90
51853;DHT22;37894;53.172;6.598;2023-11-21T08:41:06;8.80;99.90
51853;DHT22;37894;53.172;6.598;2023-11-21T08:43:35;8.40;99.90
51853;DHT22;37894;53.172;6.598;2023-11-21T08:46:01;7.90;99.90
51853;DHT22;37894;53.172;6.598;2023-11-21T08:50:55;8.90;99.90
51853;DHT22;37894;53.172;6.598;2023-11-21T08:53:20;8.70;99.90
51853;DHT22;37894;53.172;6.598;2023-11-21T08:55:47;8.80;99.90
51853;DHT22;37894;53.172;6.598;2023-11-21T08:58:12;8.90;99.90
51853;DHT22;37894;53.172;6.598;2023-11-21T09:00:40;8.80;99.90
51853;DHT22;37894;53.172;6.598;2023-11-21T09:03:06;8.90;99.90
51853;DHT22;37894;53.172;6.598;2023-11-21T09:05:37;8.80;99.90
51853;DHT22;37894;53.172;6.598;2023-11-21T09:10:30;9.80;99.90
51853;DHT22;37894;53.172;6.598;2023-11-21T09:15:22;9.30;99.90
51853;DHT22;37894;53.172;6.598;2023-11-21T09:20:14;7.90;99.90
51853;DHT22;37894;53.172;6.598;2023-11-21T09:22:40;8.70;99.90
51853;DHT22;37894;53.172;6.598;2023-11-21T09:34:57;9.30;99.90
51853;DHT22;37894;53.172;6.598;2023-11-21T09:39:52;9.20;99.90
51853;DHT22;37894;53.172;6.598;2023-11-21T09:42:30;9.70;99.90
51853;DHT22;37894;53.172;6.598;2023-11-21T09:45:08;9.00;99.90
51853;DHT22;37894;53.172;6.598;2023-11-21T09:47:38;8.90;99.90
51853;DHT22;37894;53.172;6.598;2023-11-21T09:50:05;8.70;99.90
51853;DHT22;37894;53.172;6.598;2023-11-21T09:52:57;8.50;99.90
51853;DHT22;37894;53.172;6.598;2023-11-21T09:55:25;8.40;99.90
51853;DHT22;37894;53.172;6.598;2023-11-21T09:57:53;9.00;99.90
51853;DHT22;37894;53.172;6.598;2023-11-21T10:00:19;8.90;99.90
51853;DHT22;37894;53.172;6.598;2023-11-21T10:02:49;8.90;99.90
51853;DHT22;37894;53.172;6.598;2023-11-21T10:07:46;8.80;99.90
51853;DHT22;37894;53.172;6.598;2023-11-21T10:10:13;9.10;99.90
51853;DHT22;37894;53.172;6.598;2023-11-21T10:12:42;8.60;99.90
51853;DHT22;37894;53.172;6.598;2023-11-21T10:15:11;8.10;99.90
51853;DHT22;37894;53.172;6.598;2023-11-21T10:20:14;8.90;99.90
51853;DHT22;37894;53.172;6.598;2023-11-21T10:22:41;8.40;99.90
51853;DHT22;37894;53.172;6.598;2023-11-21T10:25:10;8.90;99.90
51853;DHT22;37894;53.172;6.598;2023-11-21T10:27:40;8.80;99.90
51853;DHT22;37894;53.172;6.598;2023-11-21T10:30:07;8.90;99.90
51853;DHT22;37894;53.172;6.598;2023-11-21T10:35:00;9.70;99.90
51853;DHT22;37894;53.172;6.598;2023-11-21T10:39:59;8.90;99.90
51853;DHT22;37894;53.172;6.598;2023-11-21T10:44:53;9.10;99.90
51853;DHT22;37894;53.172;6.598;2023-11-21T10:47:19;9.20;99.90
51853;DHT22;37894;53.172;6.598;2023-11-21T10:49:48;8.70;99.90
51853;DHT22;37894;53.172;6.598;2023-11-21T10:52:14;9.10;99.90
51853;DHT22;37894;53.172;6.598;2023-11-21T10:54:46;9.10;99.90
51853;DHT22;37894;53.172;6.598;2023-11-21T10:57:17;8.90;99.90
51853;DHT22;37894;53.172;6.598;2023-11-21T10:59:47;9.10;99.90
51853;DHT22;37894;53.172;6.598;2023-11-21T11:02:23;8.70;99.90
51853;DHT22;37894;53.172;6.598;2023-11-21T11:07:27;8.00;99.90
51853;DHT22;37894;53.172;6.598;2023-11-21T11:09:54;8.90;99.90
51853;DHT22;37894;53.172;6.598;2023-11-21T11:12:20;9.00;99.90
51853;DHT22;37894;53.172;6.598;2023-11-21T11:14:48;8.60;99.90
51853;DHT22;37894;53.172;6.598;2023-11-21T11:17:14;8.70;99.90
51853;DHT22;37894;53.172;6.598;2023-11-21T11:19:39;9.00;99.90
51853;DHT22;37894;53.172;6.598;2023-11-21T11:27:53;8.70;99.90
51853;DHT22;37894;53.172;6.598;2023-11-21T11:33:34;8.70;99.90
51853;DHT22;37894;53.172;6.598;2023-11-21T11:36:21;9.00;99.90
51853;DHT22;37894;53.172;6.598;2023-11-21T11:41:31;8.80;99.90
51853;DHT22;37894;53.172;6.598;2023-11-21T11:43:59;8.80;99.90
51853;DHT22;37894;53.172;6.598;2023-11-21T11:46:56;8.80;99.90
51853;DHT22;37894;53.172;6.598;2023-11-21T11:49:27;9.70;99.90
51853;DHT22;37894;53.172;6.598;2023-11-21T11:54:56;9.10;99.90
51853;DHT22;37894;53.172;6.598;2023-11-21T11:57:26;8.00;99.90
51853;DHT22;37894;53.172;6.598;2023-11-21T12:00:15;8.80;99.90
51853;DHT22;37894;53.172;6.598;2023-11-21T12:02:44;9.20;99.90
51853;DHT22;37894;53.172;6.598;2023-11-21T12:05:18;8.80;99.90
51853;DHT22;37894;53.172;6.598;2023-11-21T12:10:15;8.80;99.90
51853;DHT22;37894;53.172;6.598;2023-11-21T12:12:54;8.70;99.90
51853;DHT22;37894;53.172;6.598;2023-11-21T12:15:21;9.00;99.90
51853;DHT22;37894;53.172;6.598;2023-11-21T12:17:47;8.90;99.90
51853;DHT22;37894;53.172;6.598;2023-11-21T12:20:16;9.00;99.90
51853;DHT22;37894;53.172;6.598;2023-11-21T12:22:50;9.20;99.90
51853;DHT22;37894;53.172;6.598;2023-11-21T12:25:23;9.00;99.90
51853;DHT22;37894;53.172;6.598;2023-11-21T12:27:51;8.60;99.90
51853;DHT22;37894;53.172;6.598;2023-11-21T12:30:19;8.80;99.90
51853;DHT22;37894;53.172;6.598;2023-11-21T12:32:48;9.00;99.90
51853;DHT22;37894;53.172;6.598;2023-11-21T12:37:48;9.60;99.90
51853;DHT22;37894;53.172;6.598;2023-11-21T12:40:15;9.00;99.90
51853;DHT22;37894;53.172;6.598;2023-11-21T12:42:42;9.00;99.90
51853;DHT22;37894;53.172;6.598;2023-11-21T12:45:27;9.30;99.90
51853;DHT22;37894;53.172;6.598;2023-11-21T12:48:08;9.40;99.90
51853;DHT22;37894;53.172;6.598;2023-11-21T12:50:37;8.20;99.90
51853;DHT22;37894;53.172;6.598;2023-11-21T12:53:10;8.40;99.90
51853;DHT22;37894;53.172;6.598;2023-11-21T12:55:43;9.10;99.90
51853;DHT22;37894;53.172;6.598;2023-11-21T12:58:15;9.20;99.90
51853;DHT22;37894;53.172;6.598;2023-11-21T13:00:48;9.30;99.90
51853;DHT22;37894;53.172;6.598;2023-11-21T13:03:16;9.10;99.90
51853;DHT22;37894;53.172;6.598;2023-11-21T13:05:44;8.90;99.90
51853;DHT22;37894;53.172;6.598;2023-11-21T13:08:12;9.10;99.90
51853;DHT22;37894;53.172;6.598;2023-11-21T13:10:43;9.40;99.90
51853;DHT22;37894;53.172;6.598;2023-11-21T13:13:12;9.20;99.90
51853;DHT22;37894;53.172;6.598;2023-11-21T13:20:47;9.60;99.90
51853;DHT22;37894;53.172;6.598;2023-11-21T13:25:42;8.90;99.90
51853;DHT22;37894;53.172;6.598;2023-11-21T13:28:08;9.20;99.90
51853;DHT22;37894;53.172;6.598;2023-11-21T13:33:02;9.20;99.90
51853;DHT22;37894;53.172;6.598;2023-11-21T13:35:32;9.10;99.90
51853;DHT22;37894;53.172;6.598;2023-11-21T13:38:18;9.00;99.90
51853;DHT22;37894;53.172;6.598;2023-11-21T13:40:54;8.80;99.90
51853;DHT22;37894;53.172;6.598;2023-11-21T13:43:23;9.20;99.90
51853;DHT22;37894;53.172;6.598;2023-11-21T13:51:11;9.20;99.90
51853;DHT22;37894;53.172;6.598;2023-11-21T13:53:47;9.30;99.90
51853;DHT22;37894;53.172;6.598;2023-11-21T13:56:15;9.00;99.90
51853;DHT22;37894;53.172;6.598;2023-11-21T14:01:24;8.90;99.90
51853;DHT22;37894;53.172;6.598;2023-11-21T14:04:00;9.20;99.90
51853;DHT22;37894;53.172;6.598;2023-11-21T14:06:43;8.90;99.90
51853;DHT22;37894;53.172;6.598;2023-11-21T14:09:17;8.90;99.90
51853;DHT22;37894;53.172;6.598;2023-11-21T14:11:51;8.80;99.90
51853;DHT22;37894;53.172;6.598;2023-11-21T14:14:22;8.80;99.90
51853;DHT22;37894;53.172;6.598;2023-11-21T14:16:49;9.90;99.90
51853;DHT22;37894;53.172;6.598;2023-11-21T14:19:17;9.30;99.90
51853;DHT22;37894;53.172;6.598;2023-11-21T14:21:46;8.80;99.90
51853;DHT22;37894;53.172;6.598;2023-11-21T14:24:12;8.80;99.90
51853;DHT22;37894;53.172;6.598;2023-11-21T14:26:42;8.40;99.90
51853;DHT22;37894;53.172;6.598;2023-11-21T14:29:09;8.70;99.90
51853;DHT22;37894;53.172;6.598;2023-11-21T14:31:36;8.80;99.90
51853;DHT22;37894;53.172;6.598;2023-11-21T14:34:02;8.10;99.90
51853;DHT22;37894;53.172;6.598;2023-11-21T14:36:28;8.80;99.90
51853;DHT22;37894;53.172;6.598;2023-11-21T14:38:54;8.70;99.90
51853;DHT22;37894;53.172;6.598;2023-11-21T14:43:46;8.80;99.90
51853;DHT22;37894;53.172;6.598;2023-11-21T14:48:44;8.80;99.90
51853;DHT22;37894;53.172;6.598;2023-11-21T14:51:21;8.50;99.90
51853;DHT22;37894;53.172;6.598;2023-11-21T14:53:57;8.60;99.90
51853;DHT22;37894;53.172;6.598;2023-11-21T14:59:00;8.50;99.90
51853;DHT22;37894;53.172;6.598;2023-11-21T15:01:32;8.70;99.90
51853;DHT22;37894;53.172;6.598;2023-11-21T15:04:17;8.30;99.90
51853;DHT22;37894;53.172;6.598;2023-11-21T15:07:10;8.40;99.90
51853;DHT22;37894;53.172;6.598;2023-11-21T15:09:37;9.20;99.90
51853;DHT22;37894;53.172;6.598;2023-11-21T15:12:08;8.80;99.90
51853;DHT22;37894;53.172;6.598;2023-11-21T15:14:50;8.40;99.90
51853;DHT22;37894;53.172;6.598;2023-11-21T15:17:20;8.50;99.90
51853;DHT22;37894;53.172;6.598;2023-11-21T15:19:52;8.40;99.90
51853;DHT22;37894;53.172;6.598;2023-11-21T15:22:19;8.40;99.90
51853;DHT22;37894;53.172;6.598;2023-11-21T15:24:45;8.00;99.90
51853;DHT22;37894;53.172;6.598;2023-11-21T15:27:13;8.40;99.90
51853;DHT22;37894;53.172;6.598;2023-11-21T15:29:39;8.50;99.90
51853;DHT22;37894;53.172;6.598;2023-11-21T15:32:06;9.00;99.90
51853;DHT22;37894;53.172;6.598;2023-11-21T15:34:33;8.40;99.90
51853;DHT22;37894;53.172;6.598;2023-11-21T15:36:59;8.40;99.90
51853;DHT22;37894;53.172;6.598;2023-11-21T15:44:22;7.90;99.90
51853;DHT22;37894;53.172;6.598;2023-11-21T15:49:15;8.40;99.90
51853;DHT22;37894;53.172;6.598;2023-11-21T15:51:44;8.20;99.90
51853;DHT22;37894;53.172;6.598;2023-11-21T15:54:18;8.10;99.90
51853;DHT22;37894;53.172;6.598;2023-11-21T15:56:47;8.20;99.90
51853;DHT22;37894;53.172;6.598;2023-11-21T15:59:12;7.90;99.90
51853;DHT22;37894;53.172;6.598;2023-11-21T16:01:39;8.50;99.90
51853;DHT22;37894;53.172;6.598;2023-11-21T16:04:13;7.20;99.90
51853;DHT22;37894;53.172;6.598;2023-11-21T16:06:46;6.90;99.90
51853;DHT22;37894;53.172;6.598;2023-11-21T16:09:13;7.80;99.90
51853;DHT22;37894;53.172;6.598;2023-11-21T16:11:50;7.60;99.90
51853;DHT22;37894;53.172;6.598;2023-11-21T16:14:23;7.40;99.90
51853;DHT22;37894;53.172;6.598;2023-11-21T16:16:55;7.60;99.90
51853;DHT22;37894;53.172;6.598;2023-11-21T16:19:21;7.20;99.90
51853;DHT22;37894;53.172;6.598;2023-11-21T16:21:48;7.30;99.90
51853;DHT22;37894;53.172;6.598;2023-11-21T16:24:13;7.40;99.90
51853;DHT22;37894;53.172;6.598;2023-11-21T16:26:43;7.20;99.90
51853;DHT22;37894;53.172;6.598;2023-11-21T16:29:09;7.40;99.90
51853;DHT22;37894;53.172;6.598;2023-11-21T16:36:29;7.20;99.90
51853;DHT22;37894;53.172;6.598;2023-11-21T16:38:55;7.10;99.90
51853;DHT22;37894;53.172;6.598;2023-11-21T16:41:21;7.00;99.90
51853;DHT22;37894;53.172;6.598;2023-11-21T16:46:13;7.20;99.90
51853;DHT22;37894;53.172;6.598;2023-11-21T16:48:39;7.10;99.90
51853;DHT22;37894;53.172;6.598;2023-11-21T16:51:06;7.10;99.90
51853;DHT22;37894;53.172;6.598;2023-11-21T16:55:59;6.90;99.90
51853;DHT22;37894;53.172;6.598;2023-11-21T16:58:26;6.80;99.90
51853;DHT22;37894;53.172;6.598;2023-11-21T17:00:52;6.70;99.90
51853;DHT22;37894;53.172;6.598;2023-11-21T17:03:18;7.00;99.90
51853;DHT22;37894;53.172;6.598;2023-11-21T17:05:45;5.70;99.90
51853;DHT22;37894;53.172;6.598;2023-11-21T17:10:39;6.60;99.90
51853;DHT22;37894;53.172;6.598;2023-11-21T17:13:04;6.70;99.90
51853;DHT22;37894;53.172;6.598;2023-11-21T17:15:30;5.80;99.90
51853;DHT22;37894;53.172;6.598;2023-11-21T17:17:56;6.40;99.90
51853;DHT22;37894;53.172;6.598;2023-11-21T17:22:51;6.90;99.90
51853;DHT22;37894;53.172;6.598;2023-11-21T17:30:14;6.40;99.90
51853;DHT22;37894;53.172;6.598;2023-11-21T17:32:40;6.60;99.90
51853;DHT22;37894;53.172;6.598;2023-11-21T17:35:06;6.40;99.90
51853;DHT22;37894;53.172;6.598;2023-11-21T17:37:31;6.50;99.90
51853;DHT22;37894;53.172;6.598;2023-11-21T17:42:23;6.50;99.90
51853;DHT22;37894;53.172;6.598;2023-11-21T17:44:49;7.10;99.90
51853;DHT22;37894;53.172;6.598;2023-11-21T17:49:41;5.60;99.90
51853;DHT22;37894;53.172;6.598;2023-11-21T17:54:33;6.10;99.90
51853;DHT22;37894;53.172;6.598;2023-11-21T17:59:24;6.30;99.90
51853;DHT22;37894;53.172;6.598;2023-11-21T18:01:50;5.90;99.90
51853;DHT22;37894;53.172;6.598;2023-11-21T18:06:42;5.60;99.90
51853;DHT22;37894;53.172;6.598;2023-11-21T18:09:09;5.90;99.90
51853;DHT22;37894;53.172;6.598;2023-11-21T18:11:35;6.10;99.90
51853;DHT22;37894;53.172;6.598;2023-11-21T18:14:01;6.80;99.90
51853;DHT22;37894;53.172;6.598;2023-11-21T18:16:31;6.60;99.90
51853;DHT22;37894;53.172;6.598;2023-11-21T18:23:49;6.50;99.90
51853;DHT22;37894;53.172;6.598;2023-11-21T18:26:17;6.70;99.90
51853;DHT22;37894;53.172;6.598;2023-11-21T18:28:43;6.70;99.90
51853;DHT22;37894;53.172;6.598;2023-11-21T18:33:35;6.60;99.90
51853;DHT22;37894;53.172;6.598;2023-11-21T18:36:01;6.70;99.90
51853;DHT22;37894;53.172;6.598;2023-11-21T18:40:52;6.80;99.90
51853;DHT22;37894;53.172;6.598;2023-11-21T18:48:10;6.60;99.90
51853;DHT22;37894;53.172;6.598;2023-11-21T18:50:41;6.70;99.90
51853;DHT22;37894;53.172;6.598;2023-11-21T18:53:07;5.90;99.90
51853;DHT22;37894;53.172;6.598;2023-11-21T18:57:58;7.10;99.90
51853;DHT22;37894;53.172;6.598;2023-11-21T19:02:50;6.70;99.90
51853;DHT22;37894;53.172;6.598;2023-11-21T19:07:42;6.70;99.90
51853;DHT22;37894;53.172;6.598;2023-11-21T19:10:08;6.80;99.90
51853;DHT22;37894;53.172;6.598;2023-11-21T19:12:36;6.50;99.90
51853;DHT22;37894;53.172;6.598;2023-11-21T19:15:07;6.50;99.90
51853;DHT22;37894;53.172;6.598;2023-11-21T19:17:34;6.50;99.90
51853;DHT22;37894;53.172;6.598;2023-11-21T19:20:01;6.80;99.90
51853;DHT22;37894;53.172;6.598;2023-11-21T19:27:19;6.80;99.90
51853;DHT22;37894;53.172;6.598;2023-11-21T19:32:11;7.40;99.90
51853;DHT22;37894;53.172;6.598;2023-11-21T19:34:37;6.60;99.90
51853;DHT22;37894;53.172;6.598;2023-11-21T19:37:03;6.50;99.90
51853;DHT22;37894;53.172;6.598;2023-11-21T19:39:29;6.20;99.90
51853;DHT22;37894;53.172;6.598;2023-11-21T19:41:54;6.70;99.90
51853;DHT22;37894;53.172;6.598;2023-11-21T19:49:12;7.10;99.90
51853;DHT22;37894;53.172;6.598;2023-11-21T19:51:38;5.90;99.90
51853;DHT22;37894;53.172;6.598;2023-11-21T19:58:56;5.90;99.90
51853;DHT22;37894;53.172;6.598;2023-11-21T20:01:22;6.20;99.90
51853;DHT22;37894;53.172;6.598;2023-11-21T20:06:14;5.70;99.90
51853;DHT22;37894;53.172;6.598;2023-11-21T20:11:06;5.80;99.90
51853;DHT22;37894;53.172;6.598;2023-11-21T20:15:58;6.00;99.90
51853;DHT22;37894;53.172;6.598;2023-11-21T20:18:24;5.80;99.90
51853;DHT22;37894;53.172;6.598;2023-11-21T20:23:17;5.90;99.90
51853;DHT22;37894;53.172;6.598;2023-11-21T20:25:44;6.70;99.90